Time;durP1;ratioP1;P1;durP2;ratioP2;P2;SDS_P1;SDS_P2;PMS_P1;PMS_P2;Temp;Humidity;BMP_temperature;BMP_pressure;BME280_temperature;BME280_humidity;BME280_pressure;Samples;Min_cycle;Max_cycle;Signal;HPM_P1;HPM_P2
2023/01/09 00:00:25;;;;;;;2.55;1.90;;;;;;;;;;5006053;28;20100;-85
2023/01/09 00:02:51;;;;;;;2.88;2.50;;;;;;;;;;5003230;28;20022;-84
2023/01/09 00:05:19;;;;;;;3.22;2.20;;;;;;;;;;5022698;28;20090;-84
2023/01/09 00:07:44;;;;;;;3.55;2.30;;;;;;;;;;5020097;28;20053;-87
2023/01/09 00:10:10;;;;;;;2.20;2.00;;;;;;;;;;5015408;28;20468;-83
2023/01/09 00:12:36;;;;;;;4.43;2.63;;;;;;;;;;5022714;28;20033;-85
2023/01/09 00:15:02;;;;;;;2.75;2.10;;;;;;;;;;5024288;28;20025;-86
2023/01/09 00:17:28;;;;;;;4.10;2.45;;;;;;;;;;5023655;28;20384;-88
2023/01/09 00:19:53;;;;;;;2.25;2.05;;;;;;;;;;5018369;28;20021;-85
2023/01/09 00:22:19;;;;;;;2.83;2.30;;;;;;;;;;5000537;28;20095;-84
2023/01/09 00:24:44;;;;;;;4.20;2.38;;;;;;;;;;5015338;28;20029;-86
2023/01/09 00:27:10;;;;;;;3.17;2.03;;;;;;;;;;5021249;28;20053;-84
2023/01/09 00:29:35;;;;;;;2.35;2.00;;;;;;;;;;5017914;28;20022;-85
2023/01/09 00:32:01;;;;;;;2.28;1.85;;;;;;;;;;5019571;28;20680;-87
2023/01/09 00:34:26;;;;;;;2.33;1.98;;;;;;;;;;5023095;28;20489;-85
2023/01/09 00:36:54;;;;;;;2.22;2.00;;;;;;;;;;5025090;28;20388;-86
2023/01/09 00:39:20;;;;;;;2.15;1.95;;;;;;;;;;5002668;28;20671;-87
2023/01/09 00:41:48;;;;;;;2.38;1.80;;;;;;;;;;5022309;28;20495;-86
2023/01/09 00:44:19;;;;;;;2.30;1.40;;;;;;;;;;5004029;28;20029;-84
2023/01/09 00:46:50;;;;;;;1.95;1.67;;;;;;;;;;5022193;28;20037;-84
2023/01/09 00:49:16;;;;;;;2.05;1.88;;;;;;;;;;5009615;28;20373;-86
2023/01/09 00:51:42;;;;;;;2.33;1.70;;;;;;;;;;5022902;28;20597;-84
2023/01/09 00:54:10;;;;;;;1.63;1.52;;;;;;;;;;5023333;28;20120;-87
2023/01/09 00:56:36;;;;;;;1.88;1.70;;;;;;;;;;5026676;28;20099;-85
2023/01/09 00:59:03;;;;;;;2.08;1.48;;;;;;;;;;5010100;28;20049;-85
2023/01/09 01:01:28;;;;;;;1.40;1.30;;;;;;;;;;5010875;28;20111;-86
2023/01/09 01:03:54;;;;;;;1.60;1.42;;;;;;;;;;5024834;28;20025;-87
2023/01/09 01:09:04;;;;;;;1.40;1.30;;;;;;;;;;5028268;28;20068;-86
2023/01/09 01:11:30;;;;;;;2.15;1.10;;;;;;;;;;5028559;28;20443;-86
2023/01/09 01:13:56;;;;;;;1.15;1.05;;;;;;;;;;5025480;28;20026;-85
2023/01/09 01:16:21;;;;;;;0.80;0.80;;;;;;;;;;5022650;28;20051;-84
2023/01/09 01:18:49;;;;;;;0.70;0.70;;;;;;;;;;5007511;28;20022;-84
2023/01/09 01:21:16;;;;;;;0.82;0.82;;;;;;;;;;5023836;28;20026;-86
2023/01/09 01:23:41;;;;;;;1.67;0.95;;;;;;;;;;5026249;28;20548;-85
2023/01/09 01:26:12;;;;;;;0.60;0.60;;;;;;;;;;5033775;28;20064;-86
2023/01/09 01:28:38;;;;;;;1.10;0.85;;;;;;;;;;5028523;28;20021;-85
2023/01/09 01:31:04;;;;;;;0.50;0.50;;;;;;;;;;5028976;28;20160;-85
2023/01/09 01:33:30;;;;;;;2.42;0.90;;;;;;;;;;5026587;28;20476;-84
2023/01/09 01:36:00;;;;;;;0.68;0.68;;;;;;;;;;5025952;28;20022;-85
2023/01/09 01:38:27;;;;;;;0.90;0.90;;;;;;;;;;5033312;28;20021;-83
2023/01/09 01:40:53;;;;;;;0.65;0.65;;;;;;;;;;5005671;28;20453;-83
2023/01/09 01:43:18;;;;;;;0.65;0.63;;;;;;;;;;5021709;28;20028;-83
2023/01/09 01:45:44;;;;;;;0.70;0.70;;;;;;;;;;5037118;28;20045;-83
2023/01/09 01:48:17;;;;;;;0.60;0.60;;;;;;;;;;5033540;28;20048;-83
2023/01/09 01:50:57;;;;;;;0.35;0.35;;;;;;;;;;5023271;28;20025;-83
2023/01/09 01:53:37;;;;;;;0.30;0.30;;;;;;;;;;5037155;28;20025;-84
2023/01/09 01:56:05;;;;;;;0.98;0.75;;;;;;;;;;5036063;28;20025;-84
2023/01/09 01:58:35;;;;;;;0.65;0.65;;;;;;;;;;5030486;28;20029;-84
2023/01/09 02:01:01;;;;;;;0.40;0.40;;;;;;;;;;5019213;28;20109;-82
2023/01/09 02:03:27;;;;;;;0.40;0.40;;;;;;;;;;5036992;28;20025;-85
2023/01/09 02:05:53;;;;;;;0.77;0.70;;;;;;;;;;5010623;28;20033;-85
2023/01/09 02:08:19;;;;;;;0.38;0.38;;;;;;;;;;5036771;28;20030;-84
2023/01/09 02:10:45;;;;;;;0.65;0.65;;;;;;;;;;5026987;28;20025;-84
2023/01/09 02:16:59;;;;;;;0.32;0.32;;;;;;;;;;5021893;28;20041;-84
2023/01/09 02:19:46;;;;;;;0.40;0.40;;;;;;;;;;5031398;28;20029;-84
2023/01/09 02:32:33;;;;;;;0.33;0.33;;;;;;;;;;5037266;28;20051;-85
2023/01/09 02:35:05;;;;;;;0.30;0.30;;;;;;;;;;5010804;28;20714;-86
2023/01/09 02:41:00;;;;;;;0.47;0.47;;;;;;;;;;5035276;28;20095;-85
2023/01/09 02:43:26;;;;;;;0.40;0.40;;;;;;;;;;5036869;28;20022;-85
2023/01/09 02:45:51;;;;;;;0.43;0.43;;;;;;;;;;5027139;28;20036;-87
2023/01/09 02:48:17;;;;;;;2.50;0.55;;;;;;;;;;5029667;28;20025;-85
2023/01/09 02:54:27;;;;;;;2.08;0.60;;;;;;;;;;5038749;28;20044;-85
2023/01/09 02:57:20;;;;;;;0.40;0.40;;;;;;;;;;5027668;28;20030;-84
2023/01/09 03:00:04;;;;;;;0.32;0.30;;;;;;;;;;5025240;28;20018;-84
2023/01/09 03:02:41;;;;;;;0.40;0.40;;;;;;;;;;5040435;28;20450;-87
2023/01/09 03:08:38;;;;;;;0.40;0.40;;;;;;;;;;5022401;28;20044;-86
2023/01/09 03:11:06;;;;;;;0.45;0.45;;;;;;;;;;5037093;28;20037;-86
2023/01/09 03:13:46;;;;;;;0.30;0.30;;;;;;;;;;5032492;28;20104;-85
2023/01/09 03:16:15;;;;;;;0.30;0.30;;;;;;;;;;5025100;28;20656;-86
2023/01/09 03:18:42;;;;;;;0.60;0.60;;;;;;;;;;5022074;28;20057;-85
2023/01/09 03:21:10;;;;;;;0.20;0.20;;;;;;;;;;5029674;28;20025;-84
2023/01/09 03:24:05;;;;;;;0.32;0.32;;;;;;;;;;5006167;28;20040;-86
2023/01/09 03:26:30;;;;;;;0.30;0.30;;;;;;;;;;5011811;28;20072;-85
2023/01/09 03:28:57;;;;;;;0.47;0.38;;;;;;;;;;5023354;28;20029;-86
2023/01/09 03:31:22;;;;;;;2.13;0.52;;;;;;;;;;5017246;28;20061;-86
2023/01/09 03:33:48;;;;;;;0.32;0.32;;;;;;;;;;5030696;28;20306;-85
2023/01/09 03:36:14;;;;;;;0.22;0.22;;;;;;;;;;5038773;28;20063;-83
2023/01/09 03:38:40;;;;;;;0.30;0.30;;;;;;;;;;5014931;28;20024;-83
2023/01/09 03:41:05;;;;;;;0.30;0.30;;;;;;;;;;5034514;28;20462;-86
2023/01/09 03:43:31;;;;;;;0.30;0.30;;;;;;;;;;5034507;28;20033;-85
2023/01/09 03:45:56;;;;;;;0.20;0.20;;;;;;;;;;5015626;28;20071;-86
2023/01/09 03:48:22;;;;;;;0.30;0.30;;;;;;;;;;5015495;28;20109;-84
2023/01/09 03:50:51;;;;;;;0.22;0.22;;;;;;;;;;5024711;28;20360;-86
2023/01/09 03:53:18;;;;;;;0.20;0.20;;;;;;;;;;5021426;28;20029;-86
2023/01/09 03:55:49;;;;;;;2.72;0.57;;;;;;;;;;5011245;28;20101;-85
2023/01/09 03:58:16;;;;;;;0.15;0.15;;;;;;;;;;5020533;28;20018;-86
2023/01/09 04:00:44;;;;;;;0.20;0.20;;;;;;;;;;5015547;28;20049;-84
2023/01/09 04:03:11;;;;;;;0.13;0.13;;;;;;;;;;5030981;28;20137;-85
2023/01/09 04:05:36;;;;;;;0.10;0.10;;;;;;;;;;5022560;28;20041;-84
2023/01/09 04:08:01;;;;;;;0.20;0.20;;;;;;;;;;5033763;28;20026;-84
2023/01/09 04:10:27;;;;;;;0.52;0.28;;;;;;;;;;5002963;28;20172;-84
2023/01/09 04:12:52;;;;;;;0.20;0.20;;;;;;;;;;5020553;28;20044;-83
2023/01/09 04:15:18;;;;;;;0.22;0.15;;;;;;;;;;5032940;28;20475;-85
2023/01/09 04:17:43;;;;;;;0.20;0.20;;;;;;;;;;5023028;28;20017;-86
2023/01/09 04:20:09;;;;;;;0.10;0.10;;;;;;;;;;5014843;28;20069;-84
2023/01/09 04:22:34;;;;;;;0.10;0.10;;;;;;;;;;5021116;28;20033;-85
2023/01/09 04:25:00;;;;;;;0.15;0.15;;;;;;;;;;5030633;28;20032;-85
2023/01/09 04:27:25;;;;;;;0.20;0.20;;;;;;;;;;5040082;28;20091;-85
2023/01/09 04:29:51;;;;;;;0.95;0.20;;;;;;;;;;5028976;28;20087;-86
2023/01/09 04:32:16;;;;;;;0.15;0.15;;;;;;;;;;5030276;28;20037;-85
2023/01/09 04:34:41;;;;;;;0.20;0.20;;;;;;;;;;5030261;28;20029;-86
2023/01/09 04:37:07;;;;;;;0.20;0.20;;;;;;;;;;5027561;28;20021;-85
2023/01/09 04:39:32;;;;;;;0.20;0.20;;;;;;;;;;5031174;28;20030;-85
2023/01/09 04:41:57;;;;;;;0.20;0.20;;;;;;;;;;5044182;28;20033;-85
2023/01/09 04:44:27;;;;;;;0.52;0.20;;;;;;;;;;5036234;28;20033;-83
2023/01/09 04:46:55;;;;;;;0.20;0.20;;;;;;;;;;5028104;28;20451;-84
2023/01/09 04:49:20;;;;;;;2.63;0.25;;;;;;;;;;5032756;28;20034;-84
2023/01/09 04:51:46;;;;;;;0.10;0.10;;;;;;;;;;5022289;28;20033;-85
2023/01/09 04:54:11;;;;;;;0.57;0.45;;;;;;;;;;5013141;28;20075;-84
2023/01/09 04:56:37;;;;;;;0.20;0.20;;;;;;;;;;5033562;28;20661;-84
2023/01/09 04:59:04;;;;;;;0.20;0.20;;;;;;;;;;5034704;28;20071;-84
2023/01/09 05:01:30;;;;;;;0.50;0.38;;;;;;;;;;5021350;28;20041;-84
2023/01/09 05:03:55;;;;;;;1.65;0.45;;;;;;;;;;5032465;28;20040;-84
2023/01/09 05:06:21;;;;;;;1.27;0.40;;;;;;;;;;5025403;28;20115;-84
2023/01/09 05:08:46;;;;;;;0.20;0.20;;;;;;;;;;5031229;28;20013;-84
2023/01/09 05:11:11;;;;;;;0.28;0.28;;;;;;;;;;5024995;28;20036;-85
2023/01/09 05:13:37;;;;;;;0.30;0.30;;;;;;;;;;5030946;28;20417;-85
2023/01/09 05:16:02;;;;;;;0.20;0.20;;;;;;;;;;5038838;28;20029;-83
2023/01/09 05:18:27;;;;;;;0.30;0.30;;;;;;;;;;5036567;28;20026;-84
2023/01/09 05:20:53;;;;;;;0.30;0.28;;;;;;;;;;5020844;28;20076;-86
2023/01/09 05:23:18;;;;;;;3.00;0.68;;;;;;;;;;5036731;28;20029;-85
2023/01/09 05:25:44;;;;;;;0.43;0.40;;;;;;;;;;5023347;28;20105;-84
2023/01/09 05:28:09;;;;;;;0.32;0.30;;;;;;;;;;5021005;28;20029;-85
2023/01/09 05:30:35;;;;;;;0.40;0.40;;;;;;;;;;5020869;28;20026;-86
2023/01/09 05:33:00;;;;;;;0.80;0.50;;;;;;;;;;5038570;28;20041;-86
2023/01/09 05:35:25;;;;;;;0.68;0.47;;;;;;;;;;5045963;28;20080;-84
2023/01/09 05:37:51;;;;;;;0.40;0.40;;;;;;;;;;5038026;28;20029;-84
2023/01/09 05:40:16;;;;;;;0.93;0.47;;;;;;;;;;5030677;28;20087;-83
2023/01/09 05:42:43;;;;;;;0.40;0.40;;;;;;;;;;5036312;28;20557;-83
2023/01/09 05:45:08;;;;;;;2.65;0.52;;;;;;;;;;5020662;28;20021;-84
2023/01/09 05:47:34;;;;;;;0.50;0.50;;;;;;;;;;5019478;28;20442;-85
2023/01/09 05:49:59;;;;;;;0.43;0.43;;;;;;;;;;5026572;28;20018;-84
2023/01/09 05:52:25;;;;;;;0.30;0.30;;;;;;;;;;5029615;28;20022;-84
2023/01/09 05:54:50;;;;;;;0.65;0.50;;;;;;;;;;5024007;28;20108;-83
2023/01/09 05:57:16;;;;;;;1.05;0.60;;;;;;;;;;5022685;28;20083;-83
2023/01/09 05:59:41;;;;;;;0.38;0.38;;;;;;;;;;5026470;28;20029;-84
2023/01/09 06:02:07;;;;;;;0.20;0.20;;;;;;;;;;5017102;28;20148;-84
2023/01/09 06:04:32;;;;;;;0.43;0.43;;;;;;;;;;5028525;28;20048;-84
2023/01/09 06:06:58;;;;;;;0.60;0.60;;;;;;;;;;5029098;28;20033;-84
2023/01/09 06:09:23;;;;;;;0.52;0.45;;;;;;;;;;5028087;28;20241;-84
2023/01/09 06:11:48;;;;;;;0.30;0.30;;;;;;;;;;5037524;28;20063;-85
2023/01/09 06:14:14;;;;;;;1.70;0.60;;;;;;;;;;5032041;28;20026;-84
2023/01/09 06:16:39;;;;;;;2.83;0.68;;;;;;;;;;5010049;28;20080;-84
2023/01/09 06:19:05;;;;;;;2.65;0.50;;;;;;;;;;5025286;28;20036;-83
2023/01/09 06:21:31;;;;;;;0.40;0.40;;;;;;;;;;5029400;28;20047;-83
2023/01/09 06:23:57;;;;;;;2.70;0.80;;;;;;;;;;5013269;28;20060;-84
2023/01/09 06:26:23;;;;;;;0.40;0.40;;;;;;;;;;5028272;28;20030;-83
2023/01/09 06:28:54;;;;;;;0.50;0.50;;;;;;;;;;5029519;28;20033;-83
2023/01/09 06:31:23;;;;;;;0.77;0.70;;;;;;;;;;5024383;28;20054;-83
2023/01/09 06:33:49;;;;;;;0.75;0.45;;;;;;;;;;5025803;28;20025;-83
2023/01/09 06:36:14;;;;;;;0.55;0.43;;;;;;;;;;5025818;28;20029;-84
2023/01/09 06:38:40;;;;;;;0.40;0.40;;;;;;;;;;5027320;28;21273;-84
2023/01/09 06:41:05;;;;;;;2.15;0.63;;;;;;;;;;5035202;28;20032;-83
2023/01/09 06:43:31;;;;;;;0.22;0.22;;;;;;;;;;5037619;28;20028;-83
2023/01/09 06:45:56;;;;;;;0.52;0.40;;;;;;;;;;5014237;28;20033;-82
2023/01/09 06:48:23;;;;;;;1.00;0.55;;;;;;;;;;5026241;28;20024;-85
2023/01/09 06:50:49;;;;;;;1.77;0.38;;;;;;;;;;5035235;28;20032;-85
2023/01/09 06:53:15;;;;;;;0.90;0.68;;;;;;;;;;5033340;28;21333;-83
2023/01/09 06:55:40;;;;;;;3.28;0.70;;;;;;;;;;5015046;28;20048;-84
2023/01/09 06:58:05;;;;;;;2.33;0.57;;;;;;;;;;5032982;28;20075;-83
2023/01/09 07:00:31;;;;;;;0.45;0.45;;;;;;;;;;5032392;28;20033;-85
2023/01/09 07:02:56;;;;;;;0.47;0.40;;;;;;;;;;5033288;28;20053;-85
2023/01/09 07:05:21;;;;;;;2.97;0.43;;;;;;;;;;5016411;28;20035;-86
2023/01/09 07:07:47;;;;;;;0.55;0.55;;;;;;;;;;5027681;28;20112;-85
2023/01/09 07:10:13;;;;;;;0.40;0.40;;;;;;;;;;5022709;28;20039;-84
2023/01/09 07:12:39;;;;;;;3.05;0.70;;;;;;;;;;5021601;28;21293;-86
2023/01/09 07:15:05;;;;;;;0.30;0.30;;;;;;;;;;5018055;28;20121;-84
2023/01/09 07:17:31;;;;;;;0.38;0.38;;;;;;;;;;5006148;28;20027;-85
2023/01/09 07:19:57;;;;;;;0.20;0.20;;;;;;;;;;5020615;28;20021;-85
2023/01/09 07:22:22;;;;;;;0.38;0.38;;;;;;;;;;5023565;28;20373;-85
2023/01/09 07:24:47;;;;;;;1.67;0.50;;;;;;;;;;5020037;28;20120;-85
2023/01/09 07:27:13;;;;;;;0.40;0.40;;;;;;;;;;5022090;28;20036;-85
2023/01/09 07:29:38;;;;;;;3.03;0.70;;;;;;;;;;5020624;28;20025;-86
2023/01/09 07:32:04;;;;;;;1.23;0.38;;;;;;;;;;5021035;28;20021;-86
2023/01/09 07:34:29;;;;;;;0.28;0.28;;;;;;;;;;4999098;28;20424;-86
2023/01/09 07:36:54;;;;;;;0.65;0.43;;;;;;;;;;4999197;28;20072;-86
2023/01/09 07:39:20;;;;;;;4.68;0.85;;;;;;;;;;5023222;28;20027;-87
2023/01/09 07:41:45;;;;;;;1.65;0.55;;;;;;;;;;5021746;28;20137;-85
2023/01/09 07:44:11;;;;;;;0.43;0.43;;;;;;;;;;5009032;28;20045;-85
2023/01/09 07:46:37;;;;;;;1.45;0.77;;;;;;;;;;5032658;28;20040;-86
2023/01/09 07:49:02;;;;;;;2.80;0.60;;;;;;;;;;5034493;28;20030;-85
2023/01/09 07:51:27;;;;;;;1.27;0.70;;;;;;;;;;5032275;28;21014;-86
2023/01/09 07:53:53;;;;;;;2.55;0.70;;;;;;;;;;5015994;28;20029;-85
2023/01/09 07:56:18;;;;;;;0.50;0.50;;;;;;;;;;5016438;28;20025;-86
2023/01/09 07:58:44;;;;;;;2.28;0.60;;;;;;;;;;5031914;28;20032;-90
2023/01/09 08:01:09;;;;;;;1.75;0.82;;;;;;;;;;5035959;28;20040;-90
2023/01/09 08:03:34;;;;;;;0.50;0.47;;;;;;;;;;5032054;28;20935;-89
2023/01/09 08:06:00;;;;;;;0.70;0.70;;;;;;;;;;5015677;28;20399;-89
2023/01/09 08:08:26;;;;;;;1.92;0.80;;;;;;;;;;5013112;28;20033;-90
2023/01/09 08:10:51;;;;;;;1.98;1.10;;;;;;;;;;5012962;28;20029;-88
2023/01/09 08:13:16;;;;;;;1.30;0.57;;;;;;;;;;5014874;28;20030;-89
2023/01/09 08:15:42;;;;;;;1.10;0.50;;;;;;;;;;5034020;28;20427;-89
2023/01/09 08:18:07;;;;;;;4.07;0.80;;;;;;;;;;5030483;28;20396;-90
2023/01/09 08:20:32;;;;;;;3.53;0.73;;;;;;;;;;4997864;28;20088;-89
2023/01/09 08:22:58;;;;;;;1.65;0.85;;;;;;;;;;5014882;28;20021;-89
2023/01/09 08:25:23;;;;;;;5.63;0.88;;;;;;;;;;5017964;28;20072;-89
2023/01/09 08:27:49;;;;;;;2.55;0.90;;;;;;;;;;5036159;28;20030;-89
2023/01/09 08:30:16;;;;;;;1.30;0.77;;;;;;;;;;5034930;28;20025;-89
2023/01/09 08:32:41;;;;;;;0.50;0.50;;;;;;;;;;5019842;28;20494;-91
2023/01/09 08:35:08;;;;;;;1.65;0.50;;;;;;;;;;5016590;28;20065;-89
2023/01/09 08:37:34;;;;;;;0.60;0.35;;;;;;;;;;5031090;28;20026;-90
2023/01/09 08:39:59;;;;;;;3.17;0.60;;;;;;;;;;5015721;28;20013;-90
2023/01/09 08:47:54;;;;;;;1.25;0.75;;;;;;;;;;5026939;28;20044;-87
2023/01/09 08:50:19;;;;;;;0.52;0.43;;;;;;;;;;5031290;28;20025;-88
2023/01/09 08:52:44;;;;;;;1.65;0.80;;;;;;;;;;5010780;28;20033;-87
2023/01/09 08:55:10;;;;;;;0.25;0.25;;;;;;;;;;5016603;28;20104;-87
2023/01/09 08:57:35;;;;;;;3.30;0.40;;;;;;;;;;5029616;28;20411;-88
2023/01/09 09:00:01;;;;;;;0.63;0.52;;;;;;;;;;5027563;28;20021;-88
2023/01/09 09:02:26;;;;;;;1.98;0.55;;;;;;;;;;5031291;28;20060;-87
2023/01/09 09:04:52;;;;;;;2.45;0.75;;;;;;;;;;5030873;28;20056;-88
2023/01/09 09:07:25;;;;;;;0.30;0.30;;;;;;;;;;5033928;28;20145;-87
2023/01/09 09:09:52;;;;;;;3.70;0.63;;;;;;;;;;5033128;28;20048;-86
2023/01/09 09:12:17;;;;;;;0.65;0.65;;;;;;;;;;5035326;28;20057;-89
2023/01/09 09:17:27;;;;;;;4.03;0.80;;;;;;;;;;5042979;28;20036;-87
2023/01/09 09:19:53;;;;;;;1.20;0.90;;;;;;;;;;5055687;28;20026;-87
2023/01/09 09:22:18;;;;;;;0.65;0.50;;;;;;;;;;5034662;28;20029;-88
2023/01/09 09:24:43;;;;;;;2.53;0.45;;;;;;;;;;5047508;28;20013;-88
2023/01/09 09:27:09;;;;;;;0.70;0.45;;;;;;;;;;5037504;28;20064;-88
2023/01/09 09:29:34;;;;;;;1.80;0.75;;;;;;;;;;5044538;28;20482;-87
2023/01/09 09:32:00;;;;;;;2.50;0.60;;;;;;;;;;5038099;28;20021;-87
2023/01/09 09:34:25;;;;;;;0.88;0.63;;;;;;;;;;5034081;28;20033;-87
2023/01/09 09:36:50;;;;;;;1.17;0.65;;;;;;;;;;5013084;28;20028;-86
2023/01/09 09:39:16;;;;;;;3.08;0.60;;;;;;;;;;5014874;28;20026;-87
2023/01/09 09:45:00;;;;;;;0.47;0.40;;;;;;;;;;5029270;28;20470;-87
2023/01/09 09:47:46;;;;;;;0.73;0.47;;;;;;;;;;5034641;28;20437;-87
2023/01/09 09:50:18;;;;;;;0.50;0.50;;;;;;;;;;5019155;28;20037;-88
2023/01/09 09:52:44;;;;;;;0.50;0.50;;;;;;;;;;5030090;28;20026;-87
2023/01/09 09:55:25;;;;;;;0.30;0.30;;;;;;;;;;5027384;28;20072;-86
2023/01/09 09:57:52;;;;;;;0.75;0.50;;;;;;;;;;5012598;28;20029;-87
2023/01/09 10:00:20;;;;;;;1.85;1.25;;;;;;;;;;5028417;28;20108;-87
2023/01/09 10:02:51;;;;;;;1.45;0.77;;;;;;;;;;5032730;28;20478;-87
2023/01/09 10:05:39;;;;;;;1.08;0.45;;;;;;;;;;5032479;28;20029;-86
2023/01/09 10:08:31;;;;;;;1.75;0.50;;;;;;;;;;5024962;28;20034;-85
2023/01/09 10:10:57;;;;;;;0.40;0.40;;;;;;;;;;5006286;28;20040;-86
2023/01/09 10:16:39;;;;;;;0.20;0.20;;;;;;;;;;5027044;28;20037;-87
2023/01/09 10:19:27;;;;;;;0.32;0.32;;;;;;;;;;5027408;28;20047;-85
2023/01/09 10:22:23;;;;;;;3.03;0.60;;;;;;;;;;5014434;28;20030;-86
2023/01/09 10:25:14;;;;;;;2.63;0.73;;;;;;;;;;5013539;28;20025;-85
2023/01/09 10:27:54;;;;;;;0.63;0.55;;;;;;;;;;5031487;28;20037;-84
2023/01/09 10:30:57;;;;;;;7.45;1.13;;;;;;;;;;5036187;28;20040;-85
2023/01/09 10:33:35;;;;;;;4.30;0.57;;;;;;;;;;4994973;28;20045;-86
2023/01/09 10:36:37;;;;;;;1.35;0.52;;;;;;;;;;5007706;28;20021;-84
2023/01/09 10:39:09;;;;;;;0.47;0.47;;;;;;;;;;5033455;28;20021;-83
2023/01/09 10:41:52;;;;;;;3.20;0.40;;;;;;;;;;5024756;28;20061;-85
2023/01/09 10:44:36;;;;;;;0.50;0.50;;;;;;;;;;5023681;28;20466;-85
2023/01/09 10:47:08;;;;;;;3.92;0.82;;;;;;;;;;5026405;28;20029;-84
2023/01/09 10:49:33;;;;;;;2.25;0.73;;;;;;;;;;5025706;28;20047;-86
2023/01/09 10:52:09;;;;;;;0.60;0.60;;;;;;;;;;5023217;28;20363;-85
2023/01/09 10:54:42;;;;;;;3.13;0.80;;;;;;;;;;5020702;28;20056;-85
2023/01/09 10:57:35;;;;;;;1.35;0.70;;;;;;;;;;5021376;28;20029;-84
2023/01/09 11:00:00;;;;;;;9.07;0.95;;;;;;;;;;5021728;28;20010;-85
2023/01/09 11:02:29;;;;;;;0.60;0.60;;;;;;;;;;5004283;28;20032;-83
2023/01/09 11:04:54;;;;;;;0.63;0.50;;;;;;;;;;5005597;28;20028;-85
2023/01/09 11:07:25;;;;;;;1.40;0.38;;;;;;;;;;5022071;28;20025;-87
2023/01/09 11:10:06;;;;;;;2.25;0.75;;;;;;;;;;5027105;28;20040;-82
2023/01/09 11:12:34;;;;;;;0.73;0.68;;;;;;;;;;5028879;28;20029;-84
2023/01/09 11:15:30;;;;;;;4.57;0.70;;;;;;;;;;5021073;28;20025;-86
2023/01/09 11:18:19;;;;;;;0.63;0.60;;;;;;;;;;5013801;28;20096;-82
2023/01/09 11:20:44;;;;;;;1.60;0.88;;;;;;;;;;5006281;28;20115;-84
2023/01/09 11:23:24;;;;;;;2.80;0.50;;;;;;;;;;5028986;28;20026;-85
2023/01/09 11:25:54;;;;;;;3.50;0.80;;;;;;;;;;5030997;28;20030;-85
2023/01/09 11:28:19;;;;;;;8.57;0.93;;;;;;;;;;5015057;28;20539;-85
2023/01/09 11:30:58;;;;;;;3.83;0.60;;;;;;;;;;5037252;28;20056;-87
2023/01/09 11:33:26;;;;;;;2.83;0.80;;;;;;;;;;5017014;28;20043;-86
2023/01/09 11:35:56;;;;;;;1.95;1.10;;;;;;;;;;5026205;28;20029;-86
2023/01/09 11:38:23;;;;;;;0.98;0.73;;;;;;;;;;5030500;28;20384;-86
2023/01/09 11:40:54;;;;;;;2.58;0.57;;;;;;;;;;5031667;28;20032;-87
2023/01/09 11:43:43;;;;;;;1.00;0.77;;;;;;;;;;5013175;28;20036;-85
2023/01/09 11:46:10;;;;;;;2.00;0.68;;;;;;;;;;5036572;28;20305;-84
2023/01/09 11:48:53;;;;;;;1.85;0.75;;;;;;;;;;5028406;28;20026;-84
2023/01/09 11:51:21;;;;;;;1.42;0.68;;;;;;;;;;5038098;28;20025;-84
2023/01/09 11:53:59;;;;;;;0.20;0.20;;;;;;;;;;5021733;28;20475;-85
2023/01/09 11:56:25;;;;;;;2.85;1.27;;;;;;;;;;5024877;28;20030;-85
2023/01/09 11:58:50;;;;;;;4.88;1.05;;;;;;;;;;5023372;28;20029;-85
2023/01/09 12:01:22;;;;;;;7.63;0.70;;;;;;;;;;5011818;28;20037;-83
2023/01/09 12:03:55;;;;;;;6.78;1.02;;;;;;;;;;5024978;28;20033;-85
2023/01/09 12:07:06;;;;;;;2.28;0.50;;;;;;;;;;5022092;28;20368;-85
2023/01/09 12:09:50;;;;;;;0.82;0.82;;;;;;;;;;5021018;28;20119;-87
2023/01/09 12:12:24;;;;;;;1.23;0.47;;;;;;;;;;5028495;28;20099;-85
2023/01/09 12:15:17;;;;;;;1.42;0.63;;;;;;;;;;5014995;28;20033;-88
2023/01/09 12:18:30;;;;;;;0.47;0.47;;;;;;;;;;5024620;28;20052;-87
2023/01/09 12:21:19;;;;;;;1.40;0.70;;;;;;;;;;5028517;28;20021;-84
2023/01/09 12:23:56;;;;;;;0.75;0.57;;;;;;;;;;5026631;28;22047;-86
2023/01/09 12:26:38;;;;;;;3.38;0.80;;;;;;;;;;5028712;28;20065;-85
2023/01/09 12:29:18;;;;;;;2.00;0.82;;;;;;;;;;5019047;28;20108;-85
2023/01/09 12:32:23;;;;;;;1.30;0.38;;;;;;;;;;5038340;28;20033;-85
2023/01/09 12:34:59;;;;;;;1.02;0.52;;;;;;;;;;5013842;28;20048;-85
2023/01/09 12:37:47;;;;;;;3.42;0.95;;;;;;;;;;5041381;28;20484;-86
2023/01/09 12:40:16;;;;;;;2.25;0.77;;;;;;;;;;5019269;28;20586;-83
2023/01/09 12:42:47;;;;;;;4.93;1.27;;;;;;;;;;5033255;28;20037;-84
2023/01/09 12:45:26;;;;;;;1.35;0.43;;;;;;;;;;5028058;28;20058;-86
2023/01/09 12:47:54;;;;;;;1.15;0.75;;;;;;;;;;5040391;28;20026;-85
2023/01/09 12:50:37;;;;;;;2.50;0.40;;;;;;;;;;5037106;28;20161;-84
2023/01/09 12:53:39;;;;;;;3.33;0.65;;;;;;;;;;5028120;28;20412;-85
2023/01/09 12:56:14;;;;;;;0.52;0.40;;;;;;;;;;5017120;28;20044;-86
2023/01/09 12:58:45;;;;;;;3.08;0.70;;;;;;;;;;5032678;28;20025;-83
2023/01/09 13:01:18;;;;;;;0.90;0.50;;;;;;;;;;5033585;28;20059;-85
2023/01/09 13:03:52;;;;;;;5.47;0.95;;;;;;;;;;5026645;28;20067;-84
2023/01/09 13:06:21;;;;;;;2.70;0.70;;;;;;;;;;5026180;28;20037;-86
2023/01/09 13:08:53;;;;;;;0.95;0.57;;;;;;;;;;5024118;28;20168;-82
2023/01/09 13:11:19;;;;;;;0.70;0.35;;;;;;;;;;5025830;28;20076;-83
2023/01/09 13:13:49;;;;;;;1.30;0.40;;;;;;;;;;5029831;28;20037;-86
2023/01/09 13:16:23;;;;;;;1.83;0.52;;;;;;;;;;5032217;28;20057;-85
2023/01/09 13:18:59;;;;;;;0.73;0.52;;;;;;;;;;5031154;28;20057;-89
2023/01/09 13:21:25;;;;;;;1.55;0.77;;;;;;;;;;5030845;28;20107;-87
2023/01/09 13:23:59;;;;;;;1.52;0.55;;;;;;;;;;5013455;28;20049;-86
2023/01/09 13:26:31;;;;;;;1.42;0.65;;;;;;;;;;5011777;28;20498;-86
2023/01/09 13:29:01;;;;;;;;;;;;;;;;;;5029110;28;20393;-86
2023/01/09 13:32:02;;;;;;;1.58;0.50;;;;;;;;;;5019581;28;19913;-86
2023/01/09 13:34:30;;;;;;;0.52;0.32;;;;;;;;;;5033714;28;20412;-86
2023/01/09 13:36:57;;;;;;;2.10;0.57;;;;;;;;;;5029925;28;20095;-84
2023/01/09 13:39:32;;;;;;;1.77;0.88;;;;;;;;;;5042783;28;20034;-82
2023/01/09 13:44:52;;;;;;;4.43;0.82;;;;;;;;;;5037583;28;20040;-86
2023/01/09 13:47:22;;;;;;;0.40;0.40;;;;;;;;;;5036134;28;20040;-85
2023/01/09 13:49:47;;;;;;;3.95;1.00;;;;;;;;;;5020225;28;20068;-85
2023/01/09 13:52:35;;;;;;;1.77;0.60;;;;;;;;;;5033007;28;20018;-85
2023/01/09 13:55:23;;;;;;;4.22;1.17;;;;;;;;;;5037774;28;20108;-87
2023/01/09 13:58:03;;;;;;;0.65;0.65;;;;;;;;;;5037483;28;20030;-86
2023/01/09 14:00:35;;;;;;;1.65;0.60;;;;;;;;;;5033781;28;20600;-88
2023/01/09 14:03:06;;;;;;;1.38;0.60;;;;;;;;;;5037848;28;20033;-84
2023/01/09 14:05:32;;;;;;;0.22;0.22;;;;;;;;;;5015011;28;20033;-87
2023/01/09 14:08:17;;;;;;;1.75;0.40;;;;;;;;;;5039204;28;20104;-86
2023/01/09 14:10:42;;;;;;;0.50;0.50;;;;;;;;;;5014932;28;20029;-86
2023/01/09 14:13:16;;;;;;;0.38;0.28;;;;;;;;;;5014223;28;20077;-85
2023/01/09 14:15:45;;;;;;;0.40;0.40;;;;;;;;;;5013521;28;20029;-87
2023/01/09 14:18:25;;;;;;;1.50;0.63;;;;;;;;;;5009864;28;20025;-86
2023/01/09 14:20:55;;;;;;;2.38;0.52;;;;;;;;;;5033042;28;20380;-83
2023/01/09 14:23:23;;;;;;;2.40;0.60;;;;;;;;;;5034732;28;20029;-86
2023/01/09 14:25:50;;;;;;;0.10;0.10;;;;;;;;;;5008527;28;20680;-87
2023/01/09 14:28:26;;;;;;;0.30;0.30;;;;;;;;;;5015393;28;20389;-85
2023/01/09 14:30:51;;;;;;;2.28;0.65;;;;;;;;;;5025078;28;20029;-84
2023/01/09 14:33:17;;;;;;;0.20;0.20;;;;;;;;;;5016448;28;20095;-87
2023/01/09 14:35:43;;;;;;;0.50;0.50;;;;;;;;;;5015915;28;20040;-86
2023/01/09 14:38:18;;;;;;;8.52;0.60;;;;;;;;;;5026125;28;20018;-87
2023/01/09 14:41:07;;;;;;;0.40;0.20;;;;;;;;;;5028729;28;21271;-87
2023/01/09 14:44:00;;;;;;;1.27;0.70;;;;;;;;;;5026538;28;20037;-87
2023/01/09 14:46:31;;;;;;;0.35;0.35;;;;;;;;;;5026774;28;20029;-88
2023/01/09 14:49:18;;;;;;;0.50;0.50;;;;;;;;;;5031618;28;20033;-87
2023/01/09 14:51:47;;;;;;;0.38;0.38;;;;;;;;;;5011937;28;20455;-86
2023/01/09 14:54:28;;;;;;;2.75;0.68;;;;;;;;;;5012509;28;20021;-86
2023/01/09 14:56:54;;;;;;;0.75;0.35;;;;;;;;;;5009539;28;20033;-87
2023/01/09 14:59:19;;;;;;;0.20;0.20;;;;;;;;;;5012432;28;20025;-87
2023/01/09 15:01:50;;;;;;;4.28;0.50;;;;;;;;;;5032121;28;20128;-86
2023/01/09 15:04:37;;;;;;;0.20;0.20;;;;;;;;;;5026771;28;20029;-86
2023/01/09 15:07:04;;;;;;;0.47;0.40;;;;;;;;;;5025712;28;20060;-86
2023/01/09 15:09:45;;;;;;;0.90;0.38;;;;;;;;;;5005684;28;20021;-85
2023/01/09 15:12:17;;;;;;;0.30;0.30;;;;;;;;;;5023844;28;20022;-86
2023/01/09 15:14:45;;;;;;;0.75;0.50;;;;;;;;;;5018464;28;20057;-85
2023/01/09 15:17:29;;;;;;;3.08;0.82;;;;;;;;;;5022902;28;20022;-86
2023/01/09 15:19:57;;;;;;;2.08;0.50;;;;;;;;;;5029265;28;20396;-86
2023/01/09 15:22:30;;;;;;;1.17;0.60;;;;;;;;;;5036182;28;20025;-86
2023/01/09 15:24:57;;;;;;;1.50;0.52;;;;;;;;;;5011133;28;20518;-85
2023/01/09 15:27:23;;;;;;;0.30;0.30;;;;;;;;;;5033486;28;20404;-87
2023/01/09 15:29:50;;;;;;;6.90;0.57;;;;;;;;;;5024827;28;20033;-85
2023/01/09 15:32:28;;;;;;;3.63;0.93;;;;;;;;;;5015766;28;20052;-85
2023/01/09 15:34:55;;;;;;;1.95;1.20;;;;;;;;;;5030586;28;20049;-85
2023/01/09 15:37:35;;;;;;;1.10;0.30;;;;;;;;;;5030146;28;20052;-85
2023/01/09 15:40:04;;;;;;;1.35;0.60;;;;;;;;;;5014137;28;20017;-86
2023/01/09 15:45:28;;;;;;;0.40;0.40;;;;;;;;;;5023971;28;20044;-86
2023/01/09 15:48:12;;;;;;;0.30;0.30;;;;;;;;;;5033286;28;20029;-85